createdAt,value
2018-12-22T00:00:45.736Z,11.32
2018-12-22T00:01:45.715Z,11.27
2018-12-22T00:02:45.696Z,11.25
2018-12-22T00:03:45.690Z,11.27
2018-12-22T00:04:45.686Z,11.37
2018-12-22T00:05:45.666Z,11.30
2018-12-22T00:06:45.657Z,11.27
2018-12-22T00:07:45.660Z,11.30
2018-12-22T00:08:45.671Z,11.29
2018-12-22T00:09:46.310Z,11.30
2018-12-22T00:10:46.287Z,11.25
2018-12-22T00:11:48.286Z,11.30
2018-12-22T00:12:46.590Z,11.32
2018-12-22T00:13:45.579Z,11.26
2018-12-22T00:14:45.561Z,11.32
2018-12-22T00:15:45.564Z,11.30
2018-12-22T00:16:45.551Z,11.26
2018-12-22T00:17:45.550Z,11.17
2018-12-22T00:18:45.528Z,11.18
2018-12-22T00:19:45.519Z,11.25
2018-12-22T00:20:45.518Z,11.29
2018-12-22T00:21:45.499Z,11.26
2018-12-22T00:22:45.510Z,11.30
2018-12-22T00:23:45.471Z,11.25
2018-12-22T00:24:45.471Z,11.30
2018-12-22T00:25:45.454Z,11.22
2018-12-22T00:26:45.432Z,11.27
2018-12-22T00:27:45.693Z,11.25
2018-12-22T00:28:45.420Z,11.36
2018-12-22T00:29:45.423Z,11.22
2018-12-22T00:30:45.410Z,11.23
2018-12-22T00:31:45.398Z,11.19
2018-12-22T00:32:45.377Z,11.19
2018-12-22T00:33:45.373Z,11.12
2018-12-22T00:34:45.369Z,11.17
2018-12-22T00:35:45.353Z,11.11
2018-12-22T00:36:45.335Z,11.15
2018-12-22T00:37:45.336Z,11.11
2018-12-22T00:38:45.307Z,11.02
2018-12-22T00:39:45.295Z,11.10
2018-12-22T00:40:45.301Z,11.11
2018-12-22T00:41:45.284Z,11.04
2018-12-22T00:42:45.278Z,11.07
2018-12-22T00:43:45.253Z,11.07
2018-12-22T00:44:45.262Z,11.08
2018-12-22T00:45:45.263Z,11.11
2018-12-22T00:46:45.321Z,11.11
2018-12-22T00:47:45.296Z,11.10
2018-12-22T00:48:45.802Z,11.08
2018-12-22T00:49:54.309Z,11.07
2018-12-22T00:50:46.858Z,11.08
2018-12-22T00:51:46.161Z,11.08
2018-12-22T00:52:45.169Z,11.14
2018-12-22T00:53:45.148Z,11.08
2018-12-22T00:54:45.136Z,11.05
2018-12-22T00:55:45.828Z,10.99
2018-12-22T00:56:45.119Z,11.04
2018-12-22T00:57:45.099Z,11.07
2018-12-22T00:58:45.093Z,11.05
2018-12-22T00:59:45.085Z,11.00
2018-12-22T01:00:45.082Z,10.97
2018-12-22T01:01:45.058Z,10.92
2018-12-22T01:02:45.046Z,10.82
2018-12-22T01:03:45.040Z,10.82
2018-12-22T01:04:45.029Z,10.87
2018-12-22T01:05:45.039Z,10.86
2018-12-22T01:06:45.023Z,10.84
2018-12-22T01:07:45.849Z,10.93
2018-12-22T01:08:44.984Z,10.84
2018-12-22T01:09:44.984Z,10.89
2018-12-22T01:10:44.967Z,10.84
2018-12-22T01:11:44.969Z,10.87
2018-12-22T01:12:44.940Z,10.84
2018-12-22T01:13:44.938Z,10.82
2018-12-22T01:14:44.917Z,10.81
2018-12-22T01:15:44.905Z,10.84
2018-12-22T01:16:44.918Z,10.84
2018-12-22T01:17:44.893Z,10.86
2018-12-22T01:18:44.893Z,10.90
2018-12-22T01:19:44.862Z,10.76
2018-12-22T01:20:44.848Z,10.86
2018-12-22T01:21:44.877Z,10.81
2018-12-22T01:22:46.333Z,10.76
2018-12-22T01:23:44.821Z,10.72
2018-12-22T01:24:44.833Z,10.74
2018-12-22T01:25:44.799Z,10.76
2018-12-22T01:26:44.793Z,10.74
2018-12-22T01:27:44.779Z,10.72
2018-12-22T01:28:44.777Z,10.74
2018-12-22T01:29:44.761Z,10.81
2018-12-22T01:30:44.751Z,10.78
2018-12-22T01:31:45.298Z,10.71
2018-12-22T01:32:44.737Z,10.79
2018-12-22T01:33:44.715Z,10.78
2018-12-22T01:34:44.707Z,10.76
2018-12-22T01:35:45.690Z,10.69
2018-12-22T01:36:44.680Z,10.68
2018-12-22T01:37:44.665Z,10.78
2018-12-22T01:38:45.334Z,10.61
2018-12-22T01:39:44.655Z,10.68
2018-12-22T01:40:44.661Z,10.75
2018-12-22T01:41:44.629Z,10.69
2018-12-22T01:42:45.338Z,10.63
2018-12-22T01:43:44.717Z,10.60
2018-12-22T01:44:44.601Z,10.61
2018-12-22T01:45:44.587Z,10.68
2018-12-22T01:46:44.572Z,10.63
2018-12-22T01:47:44.575Z,10.57
2018-12-22T01:48:44.552Z,10.51
2018-12-22T01:49:44.557Z,10.56
2018-12-22T01:50:44.528Z,10.54
2018-12-22T01:51:44.532Z,10.56
2018-12-22T01:52:44.537Z,10.51
2018-12-22T01:53:44.501Z,10.46
2018-12-22T01:54:45.484Z,10.40
2018-12-22T01:55:44.491Z,10.35
2018-12-22T01:56:44.467Z,10.35
2018-12-22T01:57:45.334Z,10.28
2018-12-22T01:58:47.973Z,10.40
2018-12-22T01:59:44.475Z,10.31
2018-12-22T02:00:44.421Z,10.26
2018-12-22T02:01:44.426Z,10.37
2018-12-22T02:02:44.404Z,10.31
2018-12-22T02:03:45.340Z,10.28
2018-12-22T02:04:44.379Z,10.28
2018-12-22T02:05:44.368Z,10.20
2018-12-22T02:06:44.361Z,10.16
2018-12-22T02:07:44.347Z,10.20
2018-12-22T02:08:44.354Z,10.13
2018-12-22T02:09:44.333Z,10.19
2018-12-22T02:10:44.315Z,10.17
2018-12-22T02:11:44.299Z,10.17
2018-12-22T02:12:44.318Z,10.17
2018-12-22T02:13:44.275Z,10.19
2018-12-22T02:14:44.270Z,10.13
2018-12-22T02:15:44.262Z,10.17
2018-12-22T02:16:45.813Z,10.09
2018-12-22T02:17:44.239Z,10.12
2018-12-22T02:18:44.226Z,10.10
2018-12-22T02:19:44.219Z,10.07
2018-12-22T02:20:44.214Z,10.02
2018-12-22T02:21:44.193Z,10.05
2018-12-22T02:22:44.184Z,10.10
2018-12-22T02:23:44.850Z,10.01
2018-12-22T02:24:44.155Z,10.10
2018-12-22T02:25:51.486Z,10.05
2018-12-22T02:26:51.953Z,9.99
2018-12-22T02:27:44.142Z,9.95
2018-12-22T02:28:56.617Z,9.99
2018-12-22T02:29:52.994Z,9.92
2018-12-22T02:30:54.535Z,9.94
2018-12-22T02:31:51.372Z,9.84
2018-12-22T02:32:52.838Z,9.84
2018-12-22T02:33:51.331Z,9.89
2018-12-22T02:34:52.450Z,9.82
2018-12-22T02:35:51.284Z,9.89
2018-12-22T02:36:44.026Z,9.86
2018-12-22T02:37:44.034Z,9.82
2018-12-22T02:38:44.012Z,9.89
2018-12-22T02:39:44.001Z,9.84
2018-12-22T02:40:43.990Z,9.86
2018-12-22T02:41:43.980Z,9.94
2018-12-22T02:42:43.992Z,9.92
2018-12-22T02:43:43.958Z,9.87
2018-12-22T02:44:43.976Z,9.83
2018-12-22T02:45:43.936Z,9.89
2018-12-22T02:46:43.938Z,9.92
2018-12-22T02:47:43.908Z,9.82
2018-12-22T02:48:43.910Z,9.77
2018-12-22T02:49:43.883Z,9.77
2018-12-22T02:50:43.879Z,9.77
2018-12-22T02:51:43.891Z,9.77
2018-12-22T02:52:43.856Z,9.80
2018-12-22T02:53:43.845Z,9.89
2018-12-22T02:54:43.838Z,9.83
2018-12-22T02:56:36.810Z,9.86
2018-12-22T02:57:36.803Z,9.80
2018-12-22T02:58:36.795Z,9.86
2018-12-22T02:59:36.762Z,9.82
2018-12-22T03:00:36.751Z,9.83
2018-12-22T03:01:36.745Z,9.86
2018-12-22T03:02:36.727Z,9.91
2018-12-22T03:03:36.721Z,9.83
2018-12-22T03:04:36.712Z,9.86
2018-12-22T03:05:36.755Z,9.89
2018-12-22T03:06:36.688Z,9.84
2018-12-22T03:07:36.684Z,9.86
2018-12-22T03:08:36.672Z,9.86
2018-12-22T03:09:37.443Z,9.86
2018-12-22T03:10:36.655Z,9.83
2018-12-22T03:11:36.636Z,9.84
2018-12-22T03:12:36.625Z,9.84
2018-12-22T03:13:36.644Z,9.84
2018-12-22T03:14:36.604Z,9.84
2018-12-22T03:15:36.592Z,9.84
2018-12-22T03:16:36.587Z,9.94
2018-12-22T03:17:36.620Z,9.82
2018-12-22T03:18:36.564Z,9.73
2018-12-22T03:19:36.538Z,9.74
2018-12-22T03:20:36.527Z,9.77
2018-12-22T03:21:36.518Z,9.80
2018-12-22T03:22:36.513Z,9.89
2018-12-22T03:23:36.525Z,9.84
2018-12-22T03:24:36.515Z,9.76
2018-12-22T03:25:36.471Z,9.91
2018-12-22T03:26:36.484Z,9.79
2018-12-22T03:27:36.452Z,9.83
2018-12-22T03:28:36.477Z,9.83
2018-12-22T03:29:36.435Z,9.82
2018-12-22T03:30:36.429Z,9.79
2018-12-22T03:31:36.404Z,9.77
2018-12-22T03:32:36.401Z,9.95
2018-12-22T03:33:36.411Z,9.83
2018-12-22T03:34:36.389Z,9.94
2018-12-22T03:35:36.375Z,9.94
2018-12-22T03:36:36.359Z,9.98
2018-12-22T03:37:36.363Z,9.98
2018-12-22T03:38:36.350Z,10.01
2018-12-22T03:39:36.327Z,10.02
2018-12-22T03:40:36.312Z,10.07
2018-12-22T03:41:36.305Z,10.10
2018-12-22T03:42:36.300Z,10.09
2018-12-22T03:43:36.291Z,10.01
2018-12-22T03:44:36.268Z,9.99
2018-12-22T03:45:36.268Z,10.13
2018-12-22T03:46:36.257Z,10.09
2018-12-22T03:47:36.235Z,10.09
2018-12-22T03:48:36.235Z,10.07
2018-12-22T03:49:36.230Z,10.15
2018-12-22T03:50:36.201Z,9.92
2018-12-22T03:51:36.211Z,9.99
2018-12-22T03:52:36.215Z,9.87
2018-12-22T03:53:36.179Z,9.91
2018-12-22T03:54:36.155Z,9.86
2018-12-22T03:55:36.147Z,9.83
2018-12-22T03:56:36.143Z,9.76
2018-12-22T03:57:36.140Z,9.87
2018-12-22T03:58:36.112Z,9.84
2018-12-22T03:59:36.111Z,9.77
2018-12-22T04:00:37.005Z,9.87
2018-12-22T04:01:36.178Z,9.80
2018-12-22T04:02:36.109Z,9.74
2018-12-22T04:03:36.069Z,9.77
2018-12-22T04:04:36.053Z,9.79
2018-12-22T04:05:36.041Z,9.77
2018-12-22T04:06:36.033Z,9.80
2018-12-22T04:07:36.040Z,9.73
2018-12-22T04:08:36.017Z,9.68
2018-12-22T04:09:36.012Z,9.72
2018-12-22T04:10:36.981Z,9.66
2018-12-22T04:11:35.974Z,9.62
2018-12-22T04:12:35.969Z,9.69
2018-12-22T04:13:35.947Z,9.66
2018-12-22T04:14:35.946Z,9.62
2018-12-22T04:15:35.946Z,9.72
2018-12-22T04:16:35.930Z,9.64
2018-12-22T04:17:35.909Z,9.59
2018-12-22T04:18:35.892Z,9.68
2018-12-22T04:19:35.905Z,9.65
2018-12-22T04:20:35.887Z,9.66
2018-12-22T04:21:35.865Z,9.68
2018-12-22T04:22:35.846Z,9.64
2018-12-22T04:23:35.847Z,9.61
2018-12-22T04:24:35.843Z,9.65
2018-12-22T04:25:35.817Z,9.61
2018-12-22T04:26:35.859Z,9.59
2018-12-22T04:27:35.791Z,9.61
2018-12-22T04:28:35.792Z,9.54
2018-12-22T04:29:35.785Z,9.61
2018-12-22T04:30:35.812Z,9.48
2018-12-22T04:31:35.753Z,9.50
2018-12-22T04:32:35.738Z,9.55
2018-12-22T04:33:35.731Z,9.50
2018-12-22T04:34:35.723Z,9.55
2018-12-22T04:35:35.709Z,9.56
2018-12-22T04:36:35.712Z,9.59
2018-12-22T04:37:35.692Z,9.58
2018-12-22T04:38:35.674Z,9.58
2018-12-22T04:39:35.687Z,9.51
2018-12-22T04:40:35.676Z,9.50
2018-12-22T04:41:35.641Z,9.55
2018-12-22T04:42:35.625Z,9.58
2018-12-22T04:43:35.630Z,9.64
2018-12-22T04:44:35.611Z,9.59
2018-12-22T04:45:35.621Z,9.54
2018-12-22T04:46:35.600Z,9.61
2018-12-22T04:47:35.581Z,9.50
2018-12-22T04:48:35.564Z,9.55
2018-12-22T04:49:35.550Z,9.61
2018-12-22T04:50:35.546Z,9.61
2018-12-22T04:51:35.549Z,9.61
2018-12-22T04:52:35.526Z,9.66
2018-12-22T04:53:35.504Z,9.61
2018-12-22T04:54:35.515Z,9.73
2018-12-22T04:55:35.486Z,9.76
2018-12-22T04:56:35.487Z,9.74
2018-12-22T04:57:35.470Z,9.79
2018-12-22T04:58:35.497Z,9.79
2018-12-22T04:59:42.968Z,9.76
2018-12-22T05:00:36.443Z,9.79
2018-12-22T05:01:35.434Z,9.76
2018-12-22T05:02:35.430Z,9.65
2018-12-22T05:03:35.427Z,9.68
2018-12-22T05:04:35.401Z,9.69
2018-12-22T05:05:35.370Z,9.65
2018-12-22T05:06:35.373Z,9.61
2018-12-22T05:07:35.355Z,9.54
2018-12-22T05:08:35.353Z,9.59
2018-12-22T05:09:35.359Z,9.64
2018-12-22T05:10:35.331Z,9.62
2018-12-22T05:11:35.304Z,9.59
2018-12-22T05:12:35.309Z,9.62
2018-12-22T05:13:35.310Z,9.58
2018-12-22T05:14:35.276Z,9.56
2018-12-22T05:15:35.273Z,9.59
2018-12-22T05:16:35.278Z,9.62
2018-12-22T05:17:35.234Z,9.54
2018-12-22T05:18:35.234Z,9.51
2018-12-22T05:19:35.225Z,9.48
2018-12-22T05:20:36.944Z,9.51
2018-12-22T05:21:35.201Z,9.58
2018-12-22T05:22:35.205Z,9.58
2018-12-22T05:23:35.180Z,9.55
2018-12-22T05:24:35.175Z,9.48
2018-12-22T05:25:35.155Z,9.54
2018-12-22T05:26:35.151Z,9.59
2018-12-22T05:27:36.942Z,9.61
2018-12-22T05:28:35.121Z,9.51
2018-12-22T05:29:35.171Z,9.55
2018-12-22T05:30:35.113Z,9.50
2018-12-22T05:31:35.099Z,9.54
2018-12-22T05:32:35.124Z,9.44
2018-12-22T05:33:35.083Z,9.43
2018-12-22T05:34:35.066Z,9.47
2018-12-22T05:35:35.053Z,9.43
2018-12-22T05:36:35.045Z,9.41
2018-12-22T05:37:35.024Z,9.39
2018-12-22T05:38:35.042Z,9.46
2018-12-22T05:39:35.016Z,9.47
2018-12-22T05:40:34.994Z,9.43
2018-12-22T05:41:34.986Z,9.37
2018-12-22T05:42:34.977Z,9.50
2018-12-22T05:43:34.963Z,9.51
2018-12-22T05:44:34.991Z,9.46
2018-12-22T05:45:34.952Z,9.51
2018-12-22T05:46:34.920Z,9.54
2018-12-22T05:47:34.916Z,9.43
2018-12-22T05:48:34.932Z,9.44
2018-12-22T05:49:34.900Z,9.46
2018-12-22T05:50:34.888Z,9.43
2018-12-22T05:51:34.953Z,9.44
2018-12-22T05:52:34.862Z,9.40
2018-12-22T05:53:34.879Z,9.41
2018-12-22T05:54:34.885Z,9.50
2018-12-22T05:55:34.845Z,9.55
2018-12-22T05:56:34.830Z,9.36
2018-12-22T05:57:34.811Z,9.43
2018-12-22T05:58:36.478Z,9.44
2018-12-22T05:59:34.777Z,9.43
2018-12-22T06:00:34.774Z,9.44
2018-12-22T06:02:28.317Z,9.44
2018-12-22T06:03:28.281Z,9.36
2018-12-22T06:04:28.266Z,9.43
2018-12-22T06:05:28.265Z,9.39
2018-12-22T06:06:28.251Z,9.54
2018-12-22T06:07:28.243Z,9.51
2018-12-22T06:08:28.239Z,9.51
2018-12-22T06:09:28.225Z,9.46
2018-12-22T06:10:28.207Z,9.47
2018-12-22T06:11:28.194Z,9.55
2018-12-22T06:12:28.202Z,9.50
2018-12-22T06:13:28.214Z,9.51
2018-12-22T06:14:28.177Z,9.44
2018-12-22T06:15:28.152Z,9.44
2018-12-22T06:16:28.164Z,9.46
2018-12-22T06:17:28.150Z,9.46
2018-12-22T06:18:28.142Z,9.43
2018-12-22T06:19:28.141Z,9.41
2018-12-22T06:20:28.104Z,9.41
2018-12-22T06:21:28.089Z,9.40
2018-12-22T06:22:28.075Z,9.43
2018-12-22T06:23:28.076Z,9.43
2018-12-22T06:24:28.075Z,9.43
2018-12-22T06:25:28.070Z,9.43
2018-12-22T06:26:28.029Z,9.41
2018-12-22T06:27:28.024Z,9.41
2018-12-22T06:28:28.019Z,9.41
2018-12-22T06:29:28.019Z,9.37
2018-12-22T06:30:27.982Z,9.34
2018-12-22T06:31:27.986Z,9.34
2018-12-22T06:32:27.992Z,9.32
2018-12-22T06:33:27.962Z,9.39
2018-12-22T06:34:27.953Z,9.39
2018-12-22T06:35:27.946Z,9.40
2018-12-22T06:36:27.924Z,9.46
2018-12-22T06:37:27.914Z,9.36
2018-12-22T06:38:27.902Z,9.36
2018-12-22T06:39:27.899Z,9.37
2018-12-22T06:40:27.880Z,9.32
2018-12-22T06:41:28.383Z,9.29
2018-12-22T06:42:27.878Z,9.40
2018-12-22T06:43:27.877Z,9.32
2018-12-22T06:44:27.907Z,9.37
2018-12-22T06:45:27.839Z,9.36
2018-12-22T06:46:27.811Z,9.31
2018-12-22T06:47:27.810Z,9.34
2018-12-22T06:48:27.799Z,9.28
2018-12-22T06:49:27.791Z,9.22
2018-12-22T06:50:27.789Z,9.36
2018-12-22T06:51:27.758Z,9.28
2018-12-22T06:52:27.774Z,9.25
2018-12-22T06:53:27.758Z,9.22
2018-12-22T06:54:27.730Z,9.23
2018-12-22T06:55:28.377Z,9.28
2018-12-22T06:56:27.702Z,9.29
2018-12-22T06:57:27.700Z,9.23
2018-12-22T06:58:27.709Z,9.31
2018-12-22T06:59:27.678Z,9.25
2018-12-22T07:00:27.713Z,9.29
2018-12-22T07:01:27.692Z,9.21
2018-12-22T07:02:27.668Z,9.22
2018-12-22T07:03:27.680Z,9.26
2018-12-22T07:04:28.375Z,9.21
2018-12-22T07:05:27.624Z,9.13
2018-12-22T07:06:27.693Z,9.22
2018-12-22T07:07:27.602Z,9.22
2018-12-22T07:08:27.580Z,9.29
2018-12-22T07:09:27.577Z,9.11
2018-12-22T07:10:27.554Z,9.25
2018-12-22T07:11:27.538Z,9.19
2018-12-22T07:12:27.540Z,9.29
2018-12-22T07:13:27.583Z,9.29
2018-12-22T07:14:27.506Z,9.31
2018-12-22T07:15:27.506Z,9.32
2018-12-22T07:16:27.482Z,9.40
2018-12-22T07:17:27.472Z,9.26
2018-12-22T07:18:27.468Z,9.28
2018-12-22T07:19:27.453Z,9.31
2018-12-22T07:20:27.442Z,9.22
2018-12-22T07:21:27.431Z,9.32
2018-12-22T07:22:27.437Z,9.28
2018-12-22T07:23:27.419Z,9.29
2018-12-22T07:25:20.081Z,9.32
2018-12-22T07:26:20.075Z,9.39
2018-12-22T07:27:20.065Z,9.28
2018-12-22T07:28:20.056Z,9.34
2018-12-22T07:29:20.038Z,9.25
2018-12-22T07:30:26.087Z,9.29
2018-12-22T07:31:21.024Z,9.26
2018-12-22T07:32:19.998Z,9.19
2018-12-22T07:33:20.001Z,9.23
2018-12-22T07:34:19.984Z,9.23
2018-12-22T07:35:19.978Z,9.19
2018-12-22T07:36:19.973Z,9.22
2018-12-22T07:37:19.958Z,9.19
2018-12-22T07:38:19.936Z,9.26
2018-12-22T07:39:19.955Z,9.21
2018-12-22T07:40:19.925Z,9.23
2018-12-22T07:41:19.910Z,9.29
2018-12-22T07:42:19.893Z,9.28
2018-12-22T07:43:19.894Z,9.28
2018-12-22T07:44:19.872Z,9.31
2018-12-22T07:45:19.873Z,9.21
2018-12-22T07:46:19.855Z,9.32
2018-12-22T07:47:19.842Z,9.29
2018-12-22T07:48:19.833Z,9.34
2018-12-22T07:49:19.820Z,9.25
2018-12-22T07:50:19.811Z,9.28
2018-12-22T07:51:19.804Z,9.29
2018-12-22T07:52:19.800Z,9.26
2018-12-22T07:53:19.793Z,9.29
2018-12-22T07:54:19.772Z,9.31
2018-12-22T07:55:19.755Z,9.34
2018-12-22T07:56:19.748Z,9.28
2018-12-22T07:57:19.733Z,9.36
2018-12-22T07:58:19.722Z,9.21
2018-12-22T07:59:19.723Z,9.32
2018-12-22T08:00:19.696Z,9.26
2018-12-22T08:01:19.941Z,9.26
2018-12-22T08:02:19.681Z,9.31
2018-12-22T08:03:19.666Z,9.31
2018-12-22T08:04:19.668Z,9.32
2018-12-22T08:05:19.657Z,9.37
2018-12-22T08:06:20.509Z,9.32
2018-12-22T08:07:19.640Z,9.28
2018-12-22T08:08:19.615Z,9.32
2018-12-22T08:09:19.607Z,9.26
2018-12-22T08:10:19.588Z,9.34
2018-12-22T08:11:19.587Z,9.26
2018-12-22T08:12:19.571Z,9.29
2018-12-22T08:13:19.569Z,9.29
2018-12-22T08:14:19.555Z,9.36
2018-12-22T08:15:19.540Z,9.29
2018-12-22T08:16:19.524Z,9.28
2018-12-22T08:17:19.520Z,9.36
2018-12-22T08:18:19.505Z,9.31
2018-12-22T08:19:19.551Z,9.37
2018-12-22T08:20:19.490Z,9.34
2018-12-22T08:21:19.470Z,9.36
2018-12-22T08:22:20.017Z,9.36
2018-12-22T08:23:19.458Z,9.32
2018-12-22T08:24:19.441Z,9.36
2018-12-22T08:25:21.031Z,9.40
2018-12-22T08:26:19.417Z,9.26
2018-12-22T08:27:19.406Z,9.37
2018-12-22T08:28:19.393Z,9.34
2018-12-22T08:29:19.391Z,9.31
2018-12-22T08:30:19.369Z,9.31
2018-12-22T08:31:19.377Z,9.32
2018-12-22T08:32:19.350Z,9.28
2018-12-22T08:33:19.354Z,9.32
2018-12-22T08:34:19.327Z,9.31
2018-12-22T08:35:20.016Z,9.28
2018-12-22T08:36:19.317Z,9.31
2018-12-22T08:37:19.303Z,9.25
2018-12-22T08:38:19.293Z,9.25
2018-12-22T08:39:19.290Z,9.31
2018-12-22T08:40:19.263Z,9.34
2018-12-22T08:41:19.251Z,9.34
2018-12-22T08:42:19.248Z,9.36
2018-12-22T08:43:20.000Z,9.39
2018-12-22T08:44:19.250Z,9.37
2018-12-22T08:45:19.213Z,9.39
2018-12-22T08:46:19.193Z,9.31
2018-12-22T08:47:19.203Z,9.37
2018-12-22T08:48:19.205Z,9.26
2018-12-22T08:49:19.188Z,9.32
2018-12-22T08:50:19.155Z,9.36
2018-12-22T08:51:19.154Z,9.34
2018-12-22T08:52:19.136Z,9.34
2018-12-22T08:53:19.118Z,9.36
2018-12-22T08:54:19.120Z,9.32
2018-12-22T08:55:20.019Z,9.44
2018-12-22T08:56:19.169Z,9.40
2018-12-22T08:57:19.072Z,9.31
2018-12-22T08:58:19.059Z,9.31
2018-12-22T08:59:19.052Z,9.32
2018-12-22T09:00:19.045Z,9.31
2018-12-22T09:01:19.039Z,9.32
2018-12-22T09:02:19.036Z,9.46
2018-12-22T09:03:19.003Z,9.39
2018-12-22T09:04:19.009Z,9.41
2018-12-22T09:05:18.998Z,9.46
2018-12-22T09:06:18.981Z,9.43
2018-12-22T09:07:18.974Z,9.37
2018-12-22T09:08:18.951Z,9.40
2018-12-22T09:09:18.950Z,9.46
2018-12-22T09:10:18.935Z,9.41
2018-12-22T09:11:18.919Z,9.43
2018-12-22T09:12:18.929Z,9.40
2018-12-22T09:13:20.945Z,9.43
2018-12-22T09:14:18.898Z,9.36
2018-12-22T09:15:18.874Z,9.29
2018-12-22T09:16:18.874Z,9.39
2018-12-22T09:17:18.861Z,9.36
2018-12-22T09:18:18.857Z,9.37
2018-12-22T09:19:18.853Z,9.34
2018-12-22T09:20:18.841Z,9.29
2018-12-22T09:21:18.857Z,9.41
2018-12-22T09:22:18.824Z,9.39
2018-12-22T09:23:18.813Z,9.39
2018-12-22T09:24:18.791Z,9.41
2018-12-22T09:25:18.788Z,9.43
2018-12-22T09:26:18.758Z,9.36
2018-12-22T09:27:18.754Z,9.40
2018-12-22T09:28:18.736Z,9.31
2018-12-22T09:29:18.736Z,9.28
2018-12-22T09:30:18.728Z,9.32
2018-12-22T09:31:18.724Z,9.31
2018-12-22T09:32:18.693Z,9.32
2018-12-22T09:33:18.686Z,9.34
2018-12-22T09:34:18.669Z,9.34
2018-12-22T09:35:18.669Z,9.37
2018-12-22T09:36:20.522Z,9.31
2018-12-22T09:37:18.650Z,9.32
2018-12-22T09:38:18.639Z,9.25
2018-12-22T09:39:18.615Z,9.25
2018-12-22T09:40:18.619Z,9.22
2018-12-22T09:41:18.607Z,9.14
2018-12-22T09:42:18.582Z,9.18
2018-12-22T09:43:18.587Z,9.13
2018-12-22T09:44:18.563Z,9.13
2018-12-22T09:45:18.548Z,9.08
2018-12-22T09:46:18.543Z,9.03
2018-12-22T09:47:18.533Z,9.03
2018-12-22T09:48:18.512Z,9.04
2018-12-22T09:49:18.517Z,9.02
2018-12-22T09:50:18.505Z,9.02
2018-12-22T09:51:18.513Z,9.04
2018-12-22T09:52:18.483Z,9.10
2018-12-22T09:53:18.470Z,9.02
2018-12-22T09:54:18.452Z,9.03
2018-12-22T09:55:18.457Z,9.06
2018-12-22T09:56:20.041Z,9.08
2018-12-22T09:57:18.434Z,9.03
2018-12-22T09:58:18.433Z,8.92
2018-12-22T09:59:19.415Z,9.00
2018-12-22T10:00:18.388Z,8.87
2018-12-22T10:01:18.384Z,8.84
2018-12-22T10:02:18.370Z,8.82
2018-12-22T10:03:18.366Z,8.87
2018-12-22T10:04:18.350Z,8.87
2018-12-22T10:05:18.441Z,8.87
2018-12-22T10:06:18.678Z,8.81
2018-12-22T10:07:18.304Z,8.84
2018-12-22T10:08:18.309Z,8.78
2018-12-22T10:09:18.288Z,8.85
2018-12-22T10:10:18.300Z,8.84
2018-12-22T10:11:18.271Z,8.87
2018-12-22T10:12:18.260Z,8.84
2018-12-22T10:13:18.250Z,8.97
2018-12-22T10:14:18.244Z,8.97
2018-12-22T10:15:18.232Z,8.88
2018-12-22T10:16:18.222Z,8.91
2018-12-22T10:17:18.249Z,8.85
2018-12-22T10:18:18.199Z,8.87
2018-12-22T10:19:18.196Z,8.85
2018-12-22T10:20:18.186Z,8.81
2018-12-22T10:21:18.163Z,8.81
2018-12-22T10:22:18.155Z,8.87
2018-12-22T10:23:18.140Z,8.88
2018-12-22T10:24:18.135Z,8.87
2018-12-22T10:25:18.124Z,8.88
2018-12-22T10:26:18.118Z,8.88
2018-12-22T10:27:18.101Z,8.85
2018-12-22T10:28:18.098Z,8.81
2018-12-22T10:29:18.072Z,8.81
2018-12-22T10:30:19.058Z,8.87
2018-12-22T10:31:18.379Z,8.84
2018-12-22T10:32:18.068Z,8.84
2018-12-22T10:33:18.032Z,8.82
2018-12-22T10:34:18.016Z,8.78
2018-12-22T10:35:18.020Z,8.74
2018-12-22T10:36:18.010Z,8.74
2018-12-22T10:37:18.003Z,8.74
2018-12-22T10:38:17.996Z,8.81
2018-12-22T10:39:17.969Z,8.73
2018-12-22T10:40:17.978Z,8.81
2018-12-22T10:41:17.947Z,8.64
2018-12-22T10:42:17.931Z,8.79
2018-12-22T10:43:17.936Z,8.70
2018-12-22T10:44:17.915Z,8.79
2018-12-22T10:45:17.893Z,8.76
2018-12-22T10:46:17.891Z,8.70
2018-12-22T10:47:18.525Z,8.73
2018-12-22T10:48:17.861Z,8.82
2018-12-22T10:49:17.865Z,8.76
2018-12-22T10:50:17.842Z,8.82
2018-12-22T10:51:24.178Z,8.81
2018-12-22T10:52:18.827Z,8.85
2018-12-22T10:53:17.814Z,8.81
2018-12-22T10:54:17.802Z,8.82
2018-12-22T10:55:17.806Z,8.78
2018-12-22T10:56:17.781Z,8.85
2018-12-22T10:57:17.774Z,8.91
2018-12-22T10:58:17.755Z,8.73
2018-12-22T10:59:17.749Z,8.88
2018-12-22T11:00:17.734Z,8.81
2018-12-22T11:01:26.221Z,8.87
2018-12-22T11:02:18.714Z,8.91
2018-12-22T11:03:17.703Z,8.95
2018-12-22T11:04:17.702Z,8.99
2018-12-22T11:05:17.688Z,8.99
2018-12-22T11:06:17.674Z,8.89
2018-12-22T11:07:18.536Z,8.99
2018-12-22T11:08:17.652Z,8.95
2018-12-22T11:09:17.635Z,8.97
2018-12-22T11:10:17.640Z,8.82
2018-12-22T11:11:17.613Z,8.88
2018-12-22T11:12:17.631Z,8.84
2018-12-22T11:13:17.591Z,8.81
2018-12-22T11:14:17.601Z,8.87
2018-12-22T11:15:17.579Z,8.82
2018-12-22T11:16:17.566Z,8.81
2018-12-22T11:17:17.556Z,8.81
2018-12-22T11:18:17.559Z,8.85
2018-12-22T11:19:17.531Z,8.85
2018-12-22T11:20:17.532Z,8.85
2018-12-22T11:21:17.522Z,8.91
2018-12-22T11:22:17.502Z,8.91
2018-12-22T11:23:20.602Z,8.92
2018-12-22T11:24:17.495Z,8.88
2018-12-22T11:25:17.492Z,8.85
2018-12-22T11:26:17.474Z,8.88
2018-12-22T11:27:17.445Z,8.87
2018-12-22T11:28:17.432Z,8.82
2018-12-22T11:29:17.423Z,8.89
2018-12-22T11:30:17.414Z,8.95
2018-12-22T11:31:17.399Z,8.95
2018-12-22T11:32:17.384Z,8.91
2018-12-22T11:33:17.390Z,8.94
2018-12-22T11:34:17.372Z,8.99
2018-12-22T11:35:17.359Z,9.03
2018-12-22T11:36:17.401Z,9.02
2018-12-22T11:37:17.335Z,9.06
2018-12-22T11:38:17.423Z,9.02
2018-12-22T11:39:17.334Z,8.99
2018-12-22T11:40:17.316Z,9.04
2018-12-22T11:41:17.293Z,9.03
2018-12-22T11:42:17.283Z,9.10
2018-12-22T11:43:17.295Z,9.03
2018-12-22T11:44:17.264Z,9.04
2018-12-22T11:45:17.276Z,9.08
2018-12-22T11:46:17.249Z,9.02
2018-12-22T11:47:17.230Z,8.89
2018-12-22T11:48:18.003Z,8.94
2018-12-22T11:49:17.228Z,9.03
2018-12-22T11:50:17.298Z,8.95
2018-12-22T11:51:17.986Z,9.00
2018-12-22T11:52:18.067Z,9.04
2018-12-22T11:53:17.170Z,8.97
2018-12-22T11:54:17.430Z,8.99
2018-12-22T11:55:17.158Z,9.06
2018-12-22T11:56:17.141Z,9.06
2018-12-22T11:58:09.366Z,9.04
2018-12-22T11:59:09.354Z,9.02
2018-12-22T12:00:09.382Z,8.99
2018-12-22T12:01:09.356Z,9.02
2018-12-22T12:02:10.128Z,8.97
2018-12-22T12:03:09.318Z,8.91
2018-12-22T12:04:09.309Z,8.99
2018-12-22T12:05:09.297Z,8.92
2018-12-22T12:06:09.312Z,8.87
2018-12-22T12:07:09.275Z,8.84
2018-12-22T12:08:10.245Z,8.84
2018-12-22T12:09:09.260Z,8.76
2018-12-22T12:10:09.235Z,8.81
2018-12-22T12:11:09.230Z,8.79
2018-12-22T12:12:10.191Z,8.82
2018-12-22T12:13:09.213Z,8.71
2018-12-22T12:14:09.191Z,8.73
2018-12-22T12:15:09.183Z,8.67
2018-12-22T12:16:09.184Z,8.55
2018-12-22T12:17:10.732Z,8.60
2018-12-22T12:18:09.153Z,8.55
2018-12-22T12:19:09.150Z,8.61
2018-12-22T12:20:09.140Z,8.60
2018-12-22T12:21:09.131Z,8.55
2018-12-22T12:22:09.112Z,8.53
2018-12-22T12:23:09.115Z,8.52
2018-12-22T12:24:09.089Z,8.51
2018-12-22T12:25:09.075Z,8.55
2018-12-22T12:26:09.059Z,8.61
2018-12-22T12:27:09.056Z,8.51
2018-12-22T12:28:09.073Z,8.51
2018-12-22T12:29:09.035Z,8.56
2018-12-22T12:30:09.028Z,8.52
2018-12-22T12:31:09.018Z,8.56
2018-12-22T12:32:08.999Z,8.61
2018-12-22T12:33:09.006Z,8.55
2018-12-22T12:34:08.973Z,8.60
2018-12-22T12:35:08.998Z,8.66
2018-12-22T12:36:08.951Z,8.66
2018-12-22T12:37:09.021Z,8.60
2018-12-22T12:38:08.928Z,8.64
2018-12-22T12:39:09.700Z,8.64
2018-12-22T12:40:08.917Z,8.55
2018-12-22T12:41:08.899Z,8.63
2018-12-22T12:42:08.895Z,8.60
2018-12-22T12:43:08.871Z,8.60
2018-12-22T12:44:08.889Z,8.60
2018-12-22T12:45:08.852Z,8.56
2018-12-22T12:46:09.698Z,8.58
2018-12-22T12:47:08.839Z,8.63
2018-12-22T12:48:08.832Z,8.58
2018-12-22T12:49:08.813Z,8.48
2018-12-22T12:50:08.809Z,8.53
2018-12-22T12:51:08.834Z,8.48
2018-12-22T12:52:08.822Z,8.53
2018-12-22T12:53:09.751Z,8.46
2018-12-22T12:54:08.757Z,8.46
2018-12-22T12:55:10.753Z,8.44
2018-12-22T12:56:08.757Z,8.44
2018-12-22T12:57:08.728Z,8.41
2018-12-22T12:58:08.711Z,8.36
2018-12-22T12:59:08.703Z,8.49
2018-12-22T13:00:08.712Z,8.48
2018-12-22T13:01:08.706Z,8.49
2018-12-22T13:02:08.677Z,8.48
2018-12-22T13:03:08.664Z,8.41
2018-12-22T13:04:09.192Z,8.42
2018-12-22T13:05:08.641Z,8.46
2018-12-22T13:06:08.655Z,8.45
2018-12-22T13:07:08.642Z,8.36
2018-12-22T13:08:08.611Z,8.34
2018-12-22T13:09:08.584Z,8.28
2018-12-22T13:10:08.593Z,8.28
2018-12-22T13:11:08.565Z,8.19
2018-12-22T13:12:08.563Z,8.23
2018-12-22T13:13:08.571Z,8.23
2018-12-22T13:14:08.543Z,8.18
2018-12-22T13:15:08.556Z,8.15
2018-12-22T13:16:08.516Z,8.10
2018-12-22T13:17:08.517Z,8.05